Time;durP1;ratioP1;P1;durP2;ratioP2;P2;SDS_P1;SDS_P2;PMS_P1;PMS_P2;Temp;Humidity;BMP_temperature;BMP_pressure;BME280_temperature;BME280_humidity;BME280_pressure;Samples;Min_cycle;Max_cycle;Signal;HPM_P1;HPM_P2
2023/11/29 00:00:09;;;;;;;;;;;;;;;;;;5090124;28;20398;-86
2023/11/29 00:02:35;;;;;;;;;;;;;;;;;;5089739;28;19924;-85
2023/11/29 00:05:03;;;;;;;;;;;;;;;;;;5088899;28;20391;-86
2023/11/29 00:07:29;;;;;;;;;;;;;;;;;;5089655;28;20344;-86
2023/11/29 00:09:55;;;;;;;;;;;;;;;;;;5090357;28;20211;-87
2023/11/29 00:12:21;;;;;;;;;;;;;;;;;;5072078;28;20440;-86
2023/11/29 00:14:47;;;;;;;;;;;;;;;;;;5088995;28;19912;-86
2023/11/29 00:17:13;;;;;;;;;;;;;;;;;;5089368;28;19966;-87
2023/11/29 00:19:39;;;;;;;;;;;;;;;;;;5089027;28;19948;-87
2023/11/29 00:22:05;;;;;;;;;;;;;;;;;;5071326;28;19912;-86
2023/11/29 00:24:31;;;;;;;;;;;;;;;;;;5089343;28;19908;-86
2023/11/29 00:26:57;;;;;;;;;;;;;;;;;;5089007;28;19911;-86
2023/11/29 00:29:24;;;;;;;;;;;;;;;;;;5088496;28;19940;-86
2023/11/29 00:31:50;;;;;;;;;;;;;;;;;;5083027;28;19912;-87
2023/11/29 00:34:16;;;;;;;;;;;;;;;;;;5088294;28;19919;-86
2023/11/29 00:36:42;;;;;;;;;;;;;;;;;;5088528;28;20379;-87
2023/11/29 00:39:08;;;;;;;;;;;;;;;;;;5089793;28;19935;-86
2023/11/29 00:41:34;;;;;;;;;;;;;;;;;;5088917;28;20316;-87
2023/11/29 00:44:00;;;;;;;;;;;;;;;;;;5088622;28;19970;-86
2023/11/29 00:46:26;;;;;;;;;;;;;;;;;;5070467;28;20327;-84
2023/11/29 00:48:52;;;;;;;;;;;;;;;;;;5088549;28;20374;-84
2023/11/29 00:51:17;;;;;;;;;;;;;;;;;;5081844;28;20014;-84
2023/11/29 00:53:43;;;;;;;;;;;;;;;;;;5087866;28;19986;-86
2023/11/29 00:56:09;;;;;;;;;;;;;;;;;;5082167;28;19934;-84
2023/11/29 00:58:35;;;;;;;;;;;;;;;;;;5088626;28;20088;-83
2023/11/29 01:01:02;;;;;;;;;;;;;;;;;;5084270;28;19908;-83
2023/11/29 01:03:27;;;;;;;;;;;;;;;;;;5087612;28;19911;-83
2023/11/29 01:05:53;;;;;;;;;;;;;;;;;;5070594;28;19966;-83
2023/11/29 01:08:25;;;;;;;;;;;;;;;;;;5088529;28;19962;-84
2023/11/29 01:10:50;;;;;;;;;;;;;;;;;;5084987;28;19915;-85
2023/11/29 01:13:16;;;;;;;;;;;;;;;;;;5088344;28;20351;-83
2023/11/29 01:15:42;;;;;;;;;;;;;;;;;;5087115;28;20285;-83
2023/11/29 01:18:08;;;;;;;;;;;;;;;;;;5092500;28;20378;-83
2023/11/29 01:20:35;;;;;;;;;;;;;;;;;;5085499;28;19965;-83
2023/11/29 01:23:01;;;;;;;;;;;;;;;;;;5088796;28;20336;-82
2023/11/29 01:25:27;;;;;;;;;;;;;;;;;;5089631;28;19908;-83
2023/11/29 01:27:53;;;;;;;;;;;;;;;;;;5091164;28;19999;-84
2023/11/29 01:30:19;;;;;;;;;;;;;;;;;;5091165;28;20119;-83
2023/11/29 01:32:45;;;;;;;;;;;;;;;;;;5102257;28;20342;-84
2023/11/29 01:35:11;;;;;;;;;;;;;;;;;;5090269;28;19930;-83
2023/11/29 01:37:37;;;;;;;;;;;;;;;;;;5081944;28;20255;-83
2023/11/29 01:40:03;;;;;;;;;;;;;;;;;;5086441;28;19912;-84
2023/11/29 01:42:29;;;;;;;;;;;;;;;;;;5090861;28;20310;-83
2023/11/29 01:44:55;;;;;;;;;;;;;;;;;;5089482;28;20653;-83
2023/11/29 01:47:21;;;;;;;;;;;;;;;;;;5086797;28;19912;-83
2023/11/29 01:49:48;;;;;;;;;;;;;;;;;;5092134;28;19908;-83
2023/11/29 01:52:15;;;;;;;;;;;;;;;;;;5084308;28;19920;-83
2023/11/29 01:54:41;;;;;;;;;;;;;;;;;;5092235;28;19966;-83
2023/11/29 01:57:07;;;;;;;;;;;;;;;;;;5086219;28;19955;-84
2023/11/29 01:59:34;;;;;;;;;;;;;;;;;;5091727;28;20004;-83
2023/11/29 02:02:00;;;;;;;;;;;;;;;;;;5090777;28;20336;-84
2023/11/29 02:04:26;;;;;;;;;;;;;;;;;;5082019;28;19942;-83
2023/11/29 02:06:52;;;;;;;;;;;;;;;;;;5081265;28;19999;-83
2023/11/29 02:09:18;;;;;;;;;;;;;;;;;;5090878;28;19950;-84
2023/11/29 02:11:44;;;;;;;;;;;;;;;;;;5082657;28;19951;-82
2023/11/29 02:14:10;;;;;;;;;;;;;;;;;;5091676;28;19945;-84
2023/11/29 02:16:36;;;;;;;;;;;;;;;;;;5089374;28;20018;-84
2023/11/29 02:19:02;;;;;;;;;;;;;;;;;;5089933;28;19915;-82
2023/11/29 02:21:28;;;;;;;;;;;;;;;;;;5087387;28;19947;-83
2023/11/29 02:23:54;;;;;;;;;;;;;;;;;;5090375;28;19965;-83
2023/11/29 02:26:20;;;;;;;;;;;;;;;;;;5089427;28;19952;-83
2023/11/29 02:28:46;;;;;;;;;;;;;;;;;;5090357;28;20306;-84
2023/11/29 02:31:12;;;;;;;;;;;;;;;;;;5087607;28;20330;-83
2023/11/29 02:33:38;;;;;;;;;;;;;;;;;;5089517;28;19943;-83
2023/11/29 02:36:04;;;;;;;;;;;;;;;;;;5089523;28;19959;-84
2023/11/29 02:38:30;;;;;;;;;;;;;;;;;;5090264;28;20281;-83
2023/11/29 02:40:56;;;;;;;;;;;;;;;;;;5069300;28;19915;-84
2023/11/29 02:43:22;;;;;;;;;;;;;;;;;;5090490;28;20382;-84
2023/11/29 02:45:48;;;;;;;;;;;;;;;;;;5089977;28;19962;-83
2023/11/29 02:48:14;;;;;;;;;;;;;;;;;;5087522;28;19969;-84
2023/11/29 02:50:39;;;;;;;;;;;;;;;;;;5088136;28;20015;-84
2023/11/29 02:53:06;;;;;;;;;;;;;;;;;;5089732;28;19967;-85
2023/11/29 02:55:32;;;;;;;;;;;;;;;;;;5089187;28;19918;-83
2023/11/29 02:57:58;;;;;;;;;;;;;;;;;;5089504;28;19919;-83
2023/11/29 03:00:24;;;;;;;;;;;;;;;;;;5089234;28;19981;-85
2023/11/29 03:02:50;;;;;;;;;;;;;;;;;;5088751;28;20399;-84
2023/11/29 03:05:16;;;;;;;;;;;;;;;;;;5089288;28;20167;-83
2023/11/29 03:07:42;;;;;;;;;;;;;;;;;;5088282;28;19963;-84
2023/11/29 03:10:08;;;;;;;;;;;;;;;;;;5071229;28;19954;-84
2023/11/29 03:12:34;;;;;;;;;;;;;;;;;;5088814;28;19946;-84
2023/11/29 03:14:59;;;;;;;;;;;;;;;;;;5088678;28;19951;-83
2023/11/29 03:17:25;;;;;;;;;;;;;;;;;;5095456;28;19959;-85
2023/11/29 03:19:51;;;;;;;;;;;;;;;;;;5078230;28;19955;-83
2023/11/29 03:22:17;;;;;;;;;;;;;;;;;;5073069;28;20017;-83
2023/11/29 03:24:43;;;;;;;;;;;;;;;;;;5086615;28;19946;-85
2023/11/29 03:27:09;;;;;;;;;;;;;;;;;;5088655;28;19947;-84
2023/11/29 03:29:35;;;;;;;;;;;;;;;;;;5090203;28;19943;-85
2023/11/29 03:32:01;;;;;;;;;;;;;;;;;;5089875;28;20392;-84
2023/11/29 03:34:27;;;;;;;;;;;;;;;;;;5088398;28;20375;-84
2023/11/29 03:36:53;;;;;;;;;;;;;;;;;;5055862;28;19986;-85
2023/11/29 03:39:19;;;;;;;;;;;;;;;;;;5089972;28;19962;-84
2023/11/29 03:41:45;;;;;;;;;;;;;;;;;;5082814;28;19967;-83
2023/11/29 03:44:11;;;;;;;;;;;;;;;;;;5089695;28;19943;-84
2023/11/29 03:46:38;;;;;;;;;;;;;;;;;;5089592;28;19943;-85
2023/11/29 03:49:04;;;;;;;;;;;;;;;;;;5081349;28;19919;-83
2023/11/29 03:51:29;;;;;;;;;;;;;;;;;;5081025;28;19940;-84
2023/11/29 03:53:57;;;;;;;;;;;;;;;;;;5089676;28;20011;-83
2023/11/29 03:56:22;;;;;;;;;;;;;;;;;;5089410;28;20378;-83
2023/11/29 03:58:48;;;;;;;;;;;;;;;;;;5089490;28;20472;-84
2023/11/29 04:01:14;;;;;;;;;;;;;;;;;;5067499;28;19958;-84
2023/11/29 04:03:40;;;;;;;;;;;;;;;;;;5085864;28;19958;-85
2023/11/29 04:06:06;;;;;;;;;;;;;;;;;;5086931;28;19959;-84
2023/11/29 04:08:32;;;;;;;;;;;;;;;;;;5090058;28;19951;-84
2023/11/29 04:10:58;;;;;;;;;;;;;;;;;;5088526;28;20020;-85
2023/11/29 04:13:24;;;;;;;;;;;;;;;;;;5089006;28;19977;-85
2023/11/29 04:15:50;;;;;;;;;;;;;;;;;;5080578;28;19962;-86
2023/11/29 04:18:16;;;;;;;;;;;;;;;;;;5078277;28;19951;-84
2023/11/29 04:20:42;;;;;;;;;;;;;;;;;;5065332;28;20081;-84
2023/11/29 04:23:08;;;;;;;;;;;;;;;;;;5089688;28;19912;-85
2023/11/29 04:25:34;;;;;;;;;;;;;;;;;;5088222;28;19951;-85
2023/11/29 04:28:00;;;;;;;;;;;;;;;;;;5073102;28;20001;-85
2023/11/29 04:30:26;;;;;;;;;;;;;;;;;;5083903;28;19912;-84
2023/11/29 04:32:52;;;;;;;;;;;;;;;;;;5088543;28;19954;-86
2023/11/29 04:35:18;;;;;;;;;;;;;;;;;;5087184;28;19908;-84
2023/11/29 04:37:45;;;;;;;;;;;;;;;;;;5086394;28;19924;-85
2023/11/29 04:40:11;;;;;;;;;;;;;;;;;;5089141;28;19915;-85
2023/11/29 04:42:37;;;;;;;;;;;;;;;;;;5089182;28;19980;-84
2023/11/29 04:45:03;;;;;;;;;;;;;;;;;;5070893;28;19919;-85
2023/11/29 04:47:29;;;;;;;;;;;;;;;;;;5088987;28;19947;-86
2023/11/29 04:49:55;;;;;;;;;;;;;;;;;;5087448;28;20006;-86
2023/11/29 04:52:21;;;;;;;;;;;;;;;;;;5088434;28;19915;-85
2023/11/29 04:54:47;;;;;;;;;;;;;;;;;;5081054;28;19943;-86
2023/11/29 04:57:13;;;;;;;;;;;;;;;;;;5079145;28;20018;-86
2023/11/29 04:59:40;;;;;;;;;;;;;;;;;;5085246;28;19916;-85
2023/11/29 05:02:06;;;;;;;;;;;;;;;;;;5070523;28;19912;-85
2023/11/29 05:04:34;;;;;;;;;;;;;;;;;;5087172;28;19931;-86
2023/11/29 05:07:00;;;;;;;;;;;;;;;;;;5085314;28;19955;-86
2023/11/29 05:09:26;;;;;;;;;;;;;;;;;;5089315;28;19947;-86
2023/11/29 05:11:52;;;;;;;;;;;;;;;;;;5088571;28;20004;-87
2023/11/29 05:14:18;;;;;;;;;;;;;;;;;;5066338;28;19959;-85
2023/11/29 05:16:44;;;;;;;;;;;;;;;;;;5101426;28;20374;-86
2023/11/29 05:19:09;;;;;;;;;;;;;;;;;;5092644;28;20111;-86
2023/11/29 05:21:35;;;;;;;;;;;;;;;;;;5093506;28;20336;-85
2023/11/29 05:24:03;;;;;;;;;;;;;;;;;;5094227;28;19908;-85
2023/11/29 05:26:28;;;;;;;;;;;;;;;;;;5081069;28;19940;-84
2023/11/29 05:28:54;;;;;;;;;;;;;;;;;;5087595;28;19965;-82
2023/11/29 05:31:20;;;;;;;;;;;;;;;;;;5089722;28;20114;-84
2023/11/29 05:33:48;;;;;;;;;;;;;;;;;;5103388;28;19908;-83
2023/11/29 05:36:14;;;;;;;;;;;;;;;;;;5087002;28;19966;-84
2023/11/29 05:38:42;;;;;;;;;;;;;;;;;;5074275;28;19912;-83
2023/11/29 05:41:08;;;;;;;;;;;;;;;;;;5086519;28;19908;-84
2023/11/29 05:43:34;;;;;;;;;;;;;;;;;;5088946;28;19914;-83
2023/11/29 05:46:00;;;;;;;;;;;;;;;;;;5089397;28;19954;-85
2023/11/29 05:48:25;;;;;;;;;;;;;;;;;;5073915;28;20129;-83
2023/11/29 05:50:51;;;;;;;;;;;;;;;;;;5090929;28;20323;-84
2023/11/29 05:53:20;;;;;;;;;;;;;;;;;;5091146;28;20417;-83
2023/11/29 05:55:46;;;;;;;;;;;;;;;;;;5089207;28;20342;-80
2023/11/29 05:58:12;;;;;;;;;;;;;;;;;;5093699;28;20025;-83
2023/11/29 06:00:38;;;;;;;;;;;;;;;;;;5097666;28;19919;-86
2023/11/29 06:03:04;;;;;;;;;;;;;;;;;;5101587;27;19919;-83
2023/11/29 06:05:30;;;;;;;;;;;;;;;;;;5090327;28;19947;-82
2023/11/29 06:07:56;;;;;;;;;;;;;;;;;;5092560;28;20350;-80
2023/11/29 06:10:22;;;;;;;;;;;;;;;;;;5091347;28;20038;-83
2023/11/29 06:12:48;;;;;;;;;;;;;;;;;;5091100;28;20295;-83
2023/11/29 06:15:15;;;;;;;;;;;;;;;;;;5090688;28;19928;-83
2023/11/29 06:17:41;;;;;;;;;;;;;;;;;;5090152;28;20026;-83
2023/11/29 06:20:09;;;;;;;;;;;;;;;;;;5091721;28;19965;-85
2023/11/29 06:22:35;;;;;;;;;;;;;;;;;;5090358;28;20003;-85
2023/11/29 06:25:01;;;;;;;;;;;;;;;;;;5090229;28;19990;-80
2023/11/29 06:27:30;;;;;;;;;;;;;;;;;;5063769;28;20332;-79
2023/11/29 06:29:57;;;;;;;;;;;;;;;;;;5090411;28;20427;-86
2023/11/29 06:32:23;;;;;;;;;;;;;;;;;;5088627;28;20308;-84
2023/11/29 06:34:49;;;;;;;;;;;;;;;;;;5083658;28;19912;-83
2023/11/29 06:37:15;;;;;;;;;;;;;;;;;;5071145;28;19955;-86
2023/11/29 06:39:41;;;;;;;;;;;;;;;;;;5092205;28;19994;-86
2023/11/29 06:42:07;;;;;;;;;;;;;;;;;;5074737;28;19915;-86
2023/11/29 06:44:33;;;;;;;;;;;;;;;;;;5086165;28;19912;-86
2023/11/29 06:46:59;;;;;;;;;;;;;;;;;;5091965;28;20023;-84
2023/11/29 06:49:26;;;;;;;;;;;;;;;;;;5079960;28;19951;-83
2023/11/29 06:51:52;;;;;;;;;;;;;;;;;;5052857;28;19905;-85
2023/11/29 06:54:18;;;;;;;;;;;;;;;;;;5071598;28;19914;-84
2023/11/29 06:56:44;;;;;;;;;;;;;;;;;;5085118;28;19907;-84
2023/11/29 06:59:11;;;;;;;;;;;;;;;;;;5091633;28;19955;-85
2023/11/29 07:01:37;;;;;;;;;;;;;;;;;;5078432;28;19962;-84
2023/11/29 07:04:03;;;;;;;;;;;;;;;;;;5064114;28;19916;-83
2023/11/29 07:06:29;;;;;;;;;;;;;;;;;;5079087;28;19956;-83
2023/11/29 07:08:55;;;;;;;;;;;;;;;;;;5071057;28;20306;-84
2023/11/29 07:11:21;;;;;;;;;;;;;;;;;;5081354;28;20432;-83
2023/11/29 07:13:47;;;;;;;;;;;;;;;;;;5072337;28;20304;-83
2023/11/29 07:16:12;;;;;;;;;;;;;;;;;;5090873;28;20086;-83
2023/11/29 07:18:38;;;;;;;;;;;;;;;;;;5090267;28;19955;-85
2023/11/29 07:21:04;;;;;;;;;;;;;;;;;;5088612;28;19943;-84
2023/11/29 07:23:30;;;;;;;;;;;;;;;;;;5090762;28;19912;-83
2023/11/29 07:25:56;;;;;;;;;;;;;;;;;;5083339;28;19955;-85
2023/11/29 07:28:22;;;;;;;;;;;;;;;;;;5077420;28;19940;-84
2023/11/29 07:30:49;;;;;;;;;;;;;;;;;;5083721;28;19916;-86
2023/11/29 07:33:15;;;;;;;;;;;;;;;;;;5090693;28;19908;-83
2023/11/29 07:35:41;;;;;;;;;;;;;;;;;;5089653;28;19908;-84
2023/11/29 07:38:07;;;;;;;;;;;;;;;;;;5071299;28;19974;-85
2023/11/29 07:40:33;;;;;;;;;;;;;;;;;;5089815;28;19935;-83
2023/11/29 07:42:59;;;;;;;;;;;;;;;;;;5090450;28;20316;-84
2023/11/29 07:45:25;;;;;;;;;;;;;;;;;;5090518;28;19987;-85
2023/11/29 07:47:52;;;;;;;;;;;;;;;;;;5072136;28;20010;-85
2023/11/29 07:50:19;;;;;;;;;;;;;;;;;;5084041;28;20003;-83
2023/11/29 07:52:45;;;;;;;;;;;;;;;;;;5088902;28;19920;-83
2023/11/29 07:55:11;;;;;;;;;;;;;;;;;;5089692;28;19915;-83
2023/11/29 07:57:37;;;;;;;;;;;;;;;;;;5089419;28;20010;-90
2023/11/29 08:00:03;;;;;;;;;;;;;;;;;;5092020;28;19991;-91
2023/11/29 08:02:29;;;;;;;;;;;;;;;;;;5092873;28;19912;-92
2023/11/29 08:04:55;;;;;;;;;;;;;;;;;;5091578;28;19952;-89
2023/11/29 08:07:21;;;;;;;;;;;;;;;;;;5072502;28;19999;-92
2023/11/29 08:09:47;;;;;;;;;;;;;;;;;;5073177;28;20331;-90
2023/11/29 08:12:14;;;;;;;;;;;;;;;;;;5089532;28;19919;-92
2023/11/29 08:14:40;;;;;;;;;;;;;;;;;;5093821;28;19914;-91
2023/11/29 08:17:06;;;;;;;;;;;;;;;;;;5092818;28;19912;-91
2023/11/29 08:19:32;;;;;;;;;;;;;;;;;;5092297;28;20376;-93
2023/11/29 08:22:01;;;;;;;;;;;;;;;;;;5054337;28;20381;-92
2023/11/29 08:24:27;;;;;;;;;;;;;;;;;;5073407;28;19908;-93
2023/11/29 08:26:52;;;;;;;;;;;;;;;;;;5086064;28;19908;-94
2023/11/29 08:29:18;;;;;;;;;;;;;;;;;;5077981;28;19908;-90
2023/11/29 08:31:44;;;;;;;;;;;;;;;;;;5101801;28;19938;-89
2023/11/29 08:34:10;;;;;;;;;;;;;;;;;;5100511;28;20243;-91
2023/11/29 08:36:36;;;;;;;;;;;;;;;;;;5093472;28;19912;-91
2023/11/29 08:39:02;;;;;;;;;;;;;;;;;;5095657;28;19908;-90
2023/11/29 08:41:28;;;;;;;;;;;;;;;;;;5098208;28;19915;-92
2023/11/29 08:43:54;;;;;;;;;;;;;;;;;;5085699;28;19915;-89
2023/11/29 08:46:20;;;;;;;;;;;;;;;;;;5098641;27;19930;-90
2023/11/29 08:48:46;;;;;;;;;;;;;;;;;;5099120;28;20103;-91
2023/11/29 08:51:12;;;;;;;;;;;;;;;;;;5090781;28;19919;-91
2023/11/29 08:53:38;;;;;;;;;;;;;;;;;;5099003;28;20120;-92
2023/11/29 08:56:04;;;;;;;;;;;;;;;;;;5097940;28;19950;-92
2023/11/29 08:58:30;;;;;;;;;;;;;;;;;;5098716;28;19916;-91
2023/11/29 09:00:56;;;;;;;;;;;;;;;;;;5089848;28;19912;-92
2023/11/29 09:03:22;;;;;;;;;;;;;;;;;;5076881;28;20279;-92
2023/11/29 09:05:48;;;;;;;;;;;;;;;;;;5087934;28;20291;-93
2023/11/29 09:08:14;;;;;;;;;;;;;;;;;;5075600;28;20395;-87
2023/11/29 09:10:40;;;;;;;;;;;;;;;;;;5077783;28;19908;-88
2023/11/29 09:13:06;;;;;;;;;;;;;;;;;;5093240;28;19943;-85
2023/11/29 09:15:32;;;;;;;;;;;;;;;;;;5092769;28;19919;-87
2023/11/29 09:17:58;;;;;;;;;;;;;;;;;;5093490;28;19939;-87
2023/11/29 09:20:25;;;;;;;;;;;;;;;;;;5092539;28;20359;-87
2023/11/29 09:22:51;;;;;;;;;;;;;;;;;;5093734;28;20110;-88
2023/11/29 09:25:17;;;;;;;;;;;;;;;;;;5092054;28;19943;-88
2023/11/29 09:27:43;;;;;;;;;;;;;;;;;;5086592;28;20332;-85
2023/11/29 09:30:10;;;;;;;;;;;;;;;;;;5093979;28;19904;-87
2023/11/29 09:32:36;;;;;;;;;;;;;;;;;;5092860;28;20040;-88
2023/11/29 09:35:04;;;;;;;;;;;;;;;;;;5073784;28;19955;-88
2023/11/29 09:37:32;;;;;;;;;;;;;;;;;;5072018;28;20019;-87
2023/11/29 09:39:58;;;;;;;;;;;;;;;;;;5054738;28;19916;-87
2023/11/29 09:42:24;;;;;;;;;;;;;;;;;;5092053;28;19908;-87
2023/11/29 09:44:50;;;;;;;;;;;;;;;;;;5093181;28;20351;-87
2023/11/29 09:47:17;;;;;;;;;;;;;;;;;;5074544;28;19962;-87
2023/11/29 09:49:43;;;;;;;;;;;;;;;;;;5087790;28;20143;-87
2023/11/29 09:52:09;;;;;;;;;;;;;;;;;;5091985;28;19934;-87
2023/11/29 09:54:35;;;;;;;;;;;;;;;;;;5093274;28;19903;-87
2023/11/29 09:57:01;;;;;;;;;;;;;;;;;;5083982;28;19966;-87
2023/11/29 09:59:26;;;;;;;;;;;;;;;;;;5074289;28;19932;-87
2023/11/29 10:01:52;;;;;;;;;;;;;;;;;;5076915;28;19963;-86
2023/11/29 10:04:18;;;;;;;;;;;;;;;;;;5081248;28;19946;-87
2023/11/29 10:06:44;;;;;;;;;;;;;;;;;;5092112;28;19962;-87
2023/11/29 10:09:13;;;;;;;;;;;;;;;;;;5092891;28;20321;-88
2023/11/29 10:11:39;;;;;;;;;;;;;;;;;;5060434;28;19912;-87
2023/11/29 10:14:05;;;;;;;;;;;;;;;;;;5071932;28;19915;-85
2023/11/29 10:16:31;;;;;;;;;;;;;;;;;;5084059;28;20002;-86
2023/11/29 10:18:57;;;;;;;;;;;;;;;;;;5084713;28;19916;-82
2023/11/29 10:21:23;;;;;;;;;;;;;;;;;;5086352;28;19961;-83
2023/11/29 10:23:49;;;;;;;;;;;;;;;;;;5100244;28;19957;-80
2023/11/29 10:26:15;;;;;;;;;;;;;;;;;;5098941;28;20118;-81
2023/11/29 10:28:41;;;;;;;;;;;;;;;;;;5077995;28;20462;-83
2023/11/29 10:31:07;;;;;;;;;;;;;;;;;;5092149;28;19912;-82
2023/11/29 10:33:33;;;;;;;;;;;;;;;;;;5089062;28;19919;-83
2023/11/29 10:35:59;;;;;;;;;;;;;;;;;;5078289;28;19955;-83
2023/11/29 10:38:25;;;;;;;;;;;;;;;;;;5073233;28;19940;-83
2023/11/29 10:40:52;;;;;;;;;;;;;;;;;;5091286;28;20422;-85
2023/11/29 10:43:18;;;;;;;;;;;;;;;;;;5091844;28;20370;-82
2023/11/29 10:45:44;;;;;;;;;;;;;;;;;;5091800;28;20371;-83
2023/11/29 10:48:10;;;;;;;;;;;;;;;;;;5091040;28;19923;-83
2023/11/29 10:50:36;;;;;;;;;;;;;;;;;;5086299;28;20074;-83
2023/11/29 10:53:02;;;;;;;;;;;;;;;;;;5053010;28;19986;-83
2023/11/29 10:55:29;;;;;;;;;;;;;;;;;;5074085;28;19947;-83
2023/11/29 10:57:55;;;;;;;;;;;;;;;;;;5077526;28;19916;-82
2023/11/29 11:00:21;;;;;;;;;;;;;;;;;;5073675;28;20380;-83
2023/11/29 11:02:47;;;;;;;;;;;;;;;;;;5091416;28;19908;-83
2023/11/29 11:05:14;;;;;;;;;;;;;;;;;;5075508;28;19919;-83
2023/11/29 11:07:40;;;;;;;;;;;;;;;;;;5072256;28;20379;-83
2023/11/29 11:10:07;;;;;;;;;;;;;;;;;;5090474;28;19904;-84
2023/11/29 11:12:33;;;;;;;;;;;;;;;;;;5090297;28;19947;-83
2023/11/29 11:14:59;;;;;;;;;;;;;;;;;;5072837;28;19908;-83
2023/11/29 11:17:25;;;;;;;;;;;;;;;;;;5065548;28;20011;-84
2023/11/29 11:19:51;;;;;;;;;;;;;;;;;;5089664;28;20061;-84
2023/11/29 11:22:17;;;;;;;;;;;;;;;;;;5072153;28;20265;-83
2023/11/29 11:24:43;;;;;;;;;;;;;;;;;;5070427;28;19934;-83
2023/11/29 11:27:09;;;;;;;;;;;;;;;;;;5070737;28;20002;-82
2023/11/29 11:29:35;;;;;;;;;;;;;;;;;;5089548;28;20453;-84
2023/11/29 11:32:01;;;;;;;;;;;;;;;;;;5089342;28;19908;-86
2023/11/29 11:34:27;;;;;;;;;;;;;;;;;;5084703;28;20090;-85
2023/11/29 11:36:53;;;;;;;;;;;;;;;;;;5085231;28;19915;-85
2023/11/29 11:39:19;;;;;;;;;;;;;;;;;;5088047;28;20317;-84
2023/11/29 11:41:45;;;;;;;;;;;;;;;;;;5068443;28;19908;-84
2023/11/29 11:44:11;;;;;;;;;;;;;;;;;;5083548;28;19968;-86
2023/11/29 11:46:37;;;;;;;;;;;;;;;;;;5086684;28;20018;-84
2023/11/29 11:49:04;;;;;;;;;;;;;;;;;;5085844;28;20341;-84
2023/11/29 11:51:30;;;;;;;;;;;;;;;;;;5079434;28;19954;-83
2023/11/29 11:53:58;;;;;;;;;;;;;;;;;;5074682;28;19916;-83
2023/11/29 11:56:25;;;;;;;;;;;;;;;;;;5073597;28;19916;-85
2023/11/29 11:58:51;;;;;;;;;;;;;;;;;;5086842;28;20044;-86
2023/11/29 12:01:17;;;;;;;;;;;;;;;;;;5080461;28;20060;-84
2023/11/29 12:03:43;;;;;;;;;;;;;;;;;;5083591;28;19945;-84
2023/11/29 12:06:09;;;;;;;;;;;;;;;;;;5087310;28;20332;-83
2023/11/29 12:08:35;;;;;;;;;;;;;;;;;;5068957;28;20355;-84
2023/11/29 12:11:01;;;;;;;;;;;;;;;;;;5082814;28;20011;-84
2023/11/29 12:13:27;;;;;;;;;;;;;;;;;;5079526;28;20007;-86
2023/11/29 12:15:54;;;;;;;;;;;;;;;;;;5086055;28;20382;-85
2023/11/29 12:18:19;;;;;;;;;;;;;;;;;;5082654;28;19916;-84
2023/11/29 12:20:45;;;;;;;;;;;;;;;;;;5078149;28;20326;-82
2023/11/29 12:23:12;;;;;;;;;;;;;;;;;;5080390;28;20434;-83
2023/11/29 12:25:38;;;;;;;;;;;;;;;;;;5077680;28;19919;-82
2023/11/29 12:28:04;;;;;;;;;;;;;;;;;;5083412;28;20008;-82
2023/11/29 12:30:30;;;;;;;;;;;;;;;;;;5081737;28;19970;-85
2023/11/29 12:32:56;;;;;;;;;;;;;;;;;;5076908;28;19978;-83
2023/11/29 12:35:22;;;;;;;;;;;;;;;;;;5070668;28;20368;-84
2023/11/29 12:37:48;;;;;;;;;;;;;;;;;;5077292;28;19924;-83
2023/11/29 12:40:15;;;;;;;;;;;;;;;;;;5059776;28;19908;-84
2023/11/29 12:42:42;;;;;;;;;;;;;;;;;;5076521;28;19908;-85
2023/11/29 12:45:08;;;;;;;;;;;;;;;;;;5073017;28;20420;-84
2023/11/29 12:47:34;;;;;;;;;;;;;;;;;;5069730;28;19992;-85
2023/11/29 12:50:00;;;;;;;;;;;;;;;;;;5077662;28;19916;-84
2023/11/29 12:52:27;;;;;;;;;;;;;;;;;;5078128;28;20003;-84
2023/11/29 12:54:53;;;;;;;;;;;;;;;;;;5084660;28;19981;-84
2023/11/29 12:57:19;;;;;;;;;;;;;;;;;;5080125;28;20010;-85
2023/11/29 12:59:45;;;;;;;;;;;;;;;;;;5087503;28;19991;-85
2023/11/29 13:02:11;;;;;;;;;;;;;;;;;;5086608;28;19908;-84
2023/11/29 13:04:37;;;;;;;;;;;;;;;;;;5083578;28;19970;-85
2023/11/29 13:07:03;;;;;;;;;;;;;;;;;;5085335;28;20009;-84
2023/11/29 13:09:31;;;;;;;;;;;;;;;;;;5077554;28;19967;-85
2023/11/29 13:11:57;;;;;;;;;;;;;;;;;;5084019;28;20344;-84
2023/11/29 13:14:23;;;;;;;;;;;;;;;;;;5086775;28;20003;-84
2023/11/29 13:16:49;;;;;;;;;;;;;;;;;;5082579;28;20301;-83
2023/11/29 13:19:15;;;;;;;;;;;;;;;;;;5071403;28;19916;-84
2023/11/29 13:21:40;;;;;;;;;;;;;;;;;;5062236;28;20031;-84
2023/11/29 13:24:06;;;;;;;;;;;;;;;;;;5073422;28;20395;-84
2023/11/29 13:26:32;;;;;;;;;;;;;;;;;;5081899;28;19955;-84
2023/11/29 13:28:58;;;;;;;;;;;;;;;;;;5079404;28;19942;-83
2023/11/29 13:31:24;;;;;;;;;;;;;;;;;;5084896;28;19986;-84
2023/11/29 13:33:50;;;;;;;;;;;;;;;;;;5077274;28;19924;-82
2023/11/29 13:36:17;;;;;;;;;;;;;;;;;;5086842;28;19916;-84
2023/11/29 13:38:43;;;;;;;;;;;;;;;;;;5083270;28;19919;-85
2023/11/29 13:41:09;;;;;;;;;;;;;;;;;;5080085;28;19908;-84
2023/11/29 13:43:35;;;;;;;;;;;;;;;;;;5083691;28;20302;-83
2023/11/29 13:46:01;;;;;;;;;;;;;;;;;;5091514;28;20355;-84
2023/11/29 13:48:27;;;;;;;;;;;;;;;;;;5057347;28;20459;-84
2023/11/29 13:50:55;;;;;;;;;;;;;;;;;;5092487;28;20403;-91
2023/11/29 13:53:21;;;;;;;;;;;;;;;;;;5084020;28;20224;-90
2023/11/29 13:55:47;;;;;;;;;;;;;;;;;;5093333;28;20002;-89
2023/11/29 13:58:13;;;;;;;;;;;;;;;;;;5058412;28;19956;-90
2023/11/29 14:00:39;;;;;;;;;;;;;;;;;;5075339;28;19915;-88
2023/11/29 14:03:06;;;;;;;;;;;;;;;;;;5079499;28;19909;-89
2023/11/29 14:05:32;;;;;;;;;;;;;;;;;;5084699;28;19937;-88
2023/11/29 14:07:58;;;;;;;;;;;;;;;;;;5093014;28;19937;-89
2023/11/29 14:10:24;;;;;;;;;;;;;;;;;;5089887;28;19987;-88
2023/11/29 14:12:50;;;;;;;;;;;;;;;;;;5088614;28;20399;-91
2023/11/29 14:15:16;;;;;;;;;;;;;;;;;;5083649;28;20363;-89
2023/11/29 14:17:42;;;;;;;;;;;;;;;;;;5087857;28;20017;-87
2023/11/29 14:20:08;;;;;;;;;;;;;;;;;;5081450;28;19904;-87
2023/11/29 14:22:34;;;;;;;;;;;;;;;;;;5081822;28;20009;-88
2023/11/29 14:25:00;;;;;;;;;;;;;;;;;;5082080;28;19915;-91
2023/11/29 14:27:26;;;;;;;;;;;;;;;;;;5089003;28;19962;-90
2023/11/29 14:29:51;;;;;;;;;;;;;;;;;;5082092;28;19912;-90
2023/11/29 14:32:17;;;;;;;;;;;;;;;;;;5089920;28;19908;-90
2023/11/29 14:34:43;;;;;;;;;;;;;;;;;;5085200;28;19977;-89
2023/11/29 14:37:10;;;;;;;;;;;;;;;;;;5091293;28;19912;-90
2023/11/29 14:39:36;;;;;;;;;;;;;;;;;;5077471;28;19934;-90
2023/11/29 14:42:02;;;;;;;;;;;;;;;;;;5081716;28;19943;-90
2023/11/29 14:44:28;;;;;;;;;;;;;;;;;;5083865;28;19919;-88
2023/11/29 14:46:54;;;;;;;;;;;;;;;;;;5092521;28;19908;-90
2023/11/29 14:49:20;;;;;;;;;;;;;;;;;;5082788;28;20351;-91
2023/11/29 14:51:48;;;;;;;;;;;;;;;;;;5093055;28;19951;-91
2023/11/29 14:54:14;;;;;;;;;;;;;;;;;;5084356;28;19946;-89
2023/11/29 14:56:40;;;;;;;;;;;;;;;;;;5092263;28;19912;-88
2023/11/29 14:59:06;;;;;;;;;;;;;;;;;;5104352;27;20414;-80
2023/11/29 15:01:32;;;;;;;;;;;;;;;;;;5086598;28;20279;-81
2023/11/29 15:03:58;;;;;;;;;;;;;;;;;;5084801;28;20449;-82
2023/11/29 15:06:24;;;;;;;;;;;;;;;;;;5073730;28;19939;-81
2023/11/29 15:08:50;;;;;;;;;;;;;;;;;;5080804;28;19939;-84
2023/11/29 15:11:16;;;;;;;;;;;;;;;;;;5093826;28;19911;-83
2023/11/29 15:13:42;;;;;;;;;;;;;;;;;;5092807;28;19954;-82
2023/11/29 15:16:08;;;;;;;;;;;;;;;;;;5088181;28;19942;-82
2023/11/29 15:18:34;;;;;;;;;;;;;;;;;;5083271;28;19916;-81
2023/11/29 15:21:00;;;;;;;;;;;;;;;;;;5066395;28;19958;-80
2023/11/29 15:23:26;;;;;;;;;;;;;;;;;;5085874;28;19993;-81
2023/11/29 15:25:51;;;;;;;;;;;;;;;;;;5072141;28;20511;-83
2023/11/29 15:28:19;;;;;;;;;;;;;;;;;;5088509;28;20458;-81
2023/11/29 15:30:45;;;;;;;;;;;;;;;;;;5069306;28;19999;-83
2023/11/29 15:33:11;;;;;;;;;;;;;;;;;;5085313;28;19916;-83
2023/11/29 15:35:37;;;;;;;;;;;;;;;;;;5083383;28;20396;-82
2023/11/29 15:38:03;;;;;;;;;;;;;;;;;;5084881;28;20365;-83
2023/11/29 15:40:29;;;;;;;;;;;;;;;;;;5082670;28;20307;-83
2023/11/29 15:42:55;;;;;;;;;;;;;;;;;;5090087;28;19943;-83
2023/11/29 15:45:21;;;;;;;;;;;;;;;;;;5080444;28;19947;-82
2023/11/29 15:47:47;;;;;;;;;;;;;;;;;;5087073;28;20041;-82
2023/11/29 15:50:13;;;;;;;;;;;;;;;;;;5084111;28;19908;-80
2023/11/29 15:52:39;;;;;;;;;;;;;;;;;;5078529;28;19920;-81
2023/11/29 15:55:05;;;;;;;;;;;;;;;;;;5087223;28;19955;-81
2023/11/29 15:57:31;;;;;;;;;;;;;;;;;;5086988;28;19952;-82
2023/11/29 15:59:57;;;;;;;;;;;;;;;;;;5076524;28;20036;-81
2023/11/29 16:02:22;;;;;;;;;;;;;;;;;;5085311;28;20458;-81
2023/11/29 16:04:48;;;;;;;;;;;;;;;;;;5081010;28;20457;-82
2023/11/29 16:07:15;;;;;;;;;;;;;;;;;;5077023;28;20336;-81
2023/11/29 16:09:41;;;;;;;;;;;;;;;;;;5081317;28;19908;-83
2023/11/29 16:12:07;;;;;;;;;;;;;;;;;;5087450;28;19922;-84
2023/11/29 16:14:33;;;;;;;;;;;;;;;;;;5085166;28;19919;-81
2023/11/29 16:16:59;;;;;;;;;;;;;;;;;;5080620;28;19954;-82
2023/11/29 16:19:24;;;;;;;;;;;;;;;;;;5085844;28;20003;-83
2023/11/29 16:21:50;;;;;;;;;;;;;;;;;;5081015;28;19947;-82
2023/11/29 16:24:16;;;;;;;;;;;;;;;;;;5076643;28;19955;-81
2023/11/29 16:26:42;;;;;;;;;;;;;;;;;;5082346;28;19970;-84
2023/11/29 16:29:08;;;;;;;;;;;;;;;;;;5082097;28;20043;-82
2023/11/29 16:31:34;;;;;;;;;;;;;;;;;;5078566;28;19952;-83
2023/11/29 16:34:00;;;;;;;;;;;;;;;;;;5078687;28;20324;-81
2023/11/29 16:36:26;;;;;;;;;;;;;;;;;;5084533;28;20453;-83